sensor_id;sensor_type;location;lat;lon;timestamp;temperature;humidity
55313;DHT22;46892;45.668;11.756;2023-12-29T00:02:10;5.60;87.30
55313;DHT22;46892;45.668;11.756;2023-12-29T00:04:36;5.60;87.00
55313;DHT22;46892;45.668;11.756;2023-12-29T00:07:02;5.50;86.80
55313;DHT22;46892;45.668;11.756;2023-12-29T00:09:28;5.30;86.60
55313;DHT22;46892;45.668;11.756;2023-12-29T00:11:54;5.30;87.00
55313;DHT22;46892;45.668;11.756;2023-12-29T00:14:20;5.30;87.30
55313;DHT22;46892;45.668;11.756;2023-12-29T00:16:45;5.30;87.50
55313;DHT22;46892;45.668;11.756;2023-12-29T00:19:12;5.30;87.40
55313;DHT22;46892;45.668;11.756;2023-12-29T00:21:37;5.20;87.20
55313;DHT22;46892;45.668;11.756;2023-12-29T00:24:06;5.10;87.50
55313;DHT22;46892;45.668;11.756;2023-12-29T00:26:32;5.10;87.60
55313;DHT22;46892;45.668;11.756;2023-12-29T00:28:58;5.10;87.90
55313;DHT22;46892;45.668;11.756;2023-12-29T00:31:23;5.20;87.80
55313;DHT22;46892;45.668;11.756;2023-12-29T00:33:49;5.10;87.80
55313;DHT22;46892;45.668;11.756;2023-12-29T00:36:18;5.10;87.90
55313;DHT22;46892;45.668;11.756;2023-12-29T00:38:44;5.00;88.10
55313;DHT22;46892;45.668;11.756;2023-12-29T00:41:10;4.90;88.70
55313;DHT22;46892;45.668;11.756;2023-12-29T00:43:36;4.90;88.80
55313;DHT22;46892;45.668;11.756;2023-12-29T00:46:03;4.90;88.80
55313;DHT22;46892;45.668;11.756;2023-12-29T00:48:29;4.90;88.50
55313;DHT22;46892;45.668;11.756;2023-12-29T00:50:55;4.90;88.40
55313;DHT22;46892;45.668;11.756;2023-12-29T00:53:20;4.90;88.30
55313;DHT22;46892;45.668;11.756;2023-12-29T00:55:46;4.90;88.40
55313;DHT22;46892;45.668;11.756;2023-12-29T00:58:12;4.90;87.60
55313;DHT22;46892;45.668;11.756;2023-12-29T01:00:38;4.90;86.30
55313;DHT22;46892;45.668;11.756;2023-12-29T01:03:04;4.80;86.80
55313;DHT22;46892;45.668;11.756;2023-12-29T01:05:29;4.70;86.80
55313;DHT22;46892;45.668;11.756;2023-12-29T01:07:55;4.70;87.00
55313;DHT22;46892;45.668;11.756;2023-12-29T01:10:21;4.70;87.40
55313;DHT22;46892;45.668;11.756;2023-12-29T01:12:47;4.70;87.50
55313;DHT22;46892;45.668;11.756;2023-12-29T01:15:13;4.70;88.10
55313;DHT22;46892;45.668;11.756;2023-12-29T01:17:39;4.70;87.40
55313;DHT22;46892;45.668;11.756;2023-12-29T01:20:05;4.70;87.10
55313;DHT22;46892;45.668;11.756;2023-12-29T01:22:31;4.60;87.20
55313;DHT22;46892;45.668;11.756;2023-12-29T01:24:59;4.50;86.80
55313;DHT22;46892;45.668;11.756;2023-12-29T01:27:25;4.50;86.30
55313;DHT22;46892;45.668;11.756;2023-12-29T01:29:51;4.50;86.10
55313;DHT22;46892;45.668;11.756;2023-12-29T01:32:21;4.50;87.00
55313;DHT22;46892;45.668;11.756;2023-12-29T01:34:47;4.50;86.80
55313;DHT22;46892;45.668;11.756;2023-12-29T01:37:13;4.40;86.80
55313;DHT22;46892;45.668;11.756;2023-12-29T01:39:39;4.40;86.60
55313;DHT22;46892;45.668;11.756;2023-12-29T01:42:07;4.30;86.40
55313;DHT22;46892;45.668;11.756;2023-12-29T01:44:33;4.30;87.10
55313;DHT22;46892;45.668;11.756;2023-12-29T01:47:01;4.30;87.30
55313;DHT22;46892;45.668;11.756;2023-12-29T01:49:27;4.30;87.20
55313;DHT22;46892;45.668;11.756;2023-12-29T01:51:55;4.20;87.30
55313;DHT22;46892;45.668;11.756;2023-12-29T01:54:27;4.20;87.40
55313;DHT22;46892;45.668;11.756;2023-12-29T01:56:57;4.20;87.50
55313;DHT22;46892;45.668;11.756;2023-12-29T01:59:25;4.20;87.60
55313;DHT22;46892;45.668;11.756;2023-12-29T02:01:53;4.30;87.80
55313;DHT22;46892;45.668;11.756;2023-12-29T02:04:19;4.30;87.80
55313;DHT22;46892;45.668;11.756;2023-12-29T02:06:44;4.30;86.20
55313;DHT22;46892;45.668;11.756;2023-12-29T02:09:11;4.10;86.20
55313;DHT22;46892;45.668;11.756;2023-12-29T02:11:38;4.00;86.50
55313;DHT22;46892;45.668;11.756;2023-12-29T02:14:04;3.90;85.80
55313;DHT22;46892;45.668;11.756;2023-12-29T02:19:36;3.90;86.60
55313;DHT22;46892;45.668;11.756;2023-12-29T02:22:04;3.90;87.10
55313;DHT22;46892;45.668;11.756;2023-12-29T02:24:29;3.90;86.30
55313;DHT22;46892;45.668;11.756;2023-12-29T02:27:07;3.90;86.30
55313;DHT22;46892;45.668;11.756;2023-12-29T02:29:39;3.90;86.50
55313;DHT22;46892;45.668;11.756;2023-12-29T02:32:07;3.80;87.10
55313;DHT22;46892;45.668;11.756;2023-12-29T02:34:38;3.80;87.60
55313;DHT22;46892;45.668;11.756;2023-12-29T02:37:06;3.90;87.90
55313;DHT22;46892;45.668;11.756;2023-12-29T02:39:32;4.00;88.10
55313;DHT22;46892;45.668;11.756;2023-12-29T02:41:58;4.00;87.30
55313;DHT22;46892;45.668;11.756;2023-12-29T02:44:24;4.00;87.00
55313;DHT22;46892;45.668;11.756;2023-12-29T02:46:49;4.00;86.10
55313;DHT22;46892;45.668;11.756;2023-12-29T02:49:16;3.90;86.00
55313;DHT22;46892;45.668;11.756;2023-12-29T02:51:42;3.80;86.60
55313;DHT22;46892;45.668;11.756;2023-12-29T02:54:07;3.80;86.60
55313;DHT22;46892;45.668;11.756;2023-12-29T02:56:33;3.80;86.30
55313;DHT22;46892;45.668;11.756;2023-12-29T02:59:00;3.70;86.30
55313;DHT22;46892;45.668;11.756;2023-12-29T03:01:26;3.70;86.50
55313;DHT22;46892;45.668;11.756;2023-12-29T03:03:54;3.60;86.30
55313;DHT22;46892;45.668;11.756;2023-12-29T03:06:20;3.60;86.70
55313;DHT22;46892;45.668;11.756;2023-12-29T03:08:45;3.70;87.50
55313;DHT22;46892;45.668;11.756;2023-12-29T03:11:11;3.80;87.40
55313;DHT22;46892;45.668;11.756;2023-12-29T03:13:37;3.80;86.50
55313;DHT22;46892;45.668;11.756;2023-12-29T03:16:03;3.80;86.70
55313;DHT22;46892;45.668;11.756;2023-12-29T03:18:28;3.80;86.10
55313;DHT22;46892;45.668;11.756;2023-12-29T03:20:54;3.80;86.00
55313;DHT22;46892;45.668;11.756;2023-12-29T03:23:20;3.80;85.70
55313;DHT22;46892;45.668;11.756;2023-12-29T03:25:45;3.70;85.90
55313;DHT22;46892;45.668;11.756;2023-12-29T03:28:11;3.70;86.30
55313;DHT22;46892;45.668;11.756;2023-12-29T03:30:37;3.70;86.60
55313;DHT22;46892;45.668;11.756;2023-12-29T03:33:03;3.60;86.70
55313;DHT22;46892;45.668;11.756;2023-12-29T03:35:28;3.60;86.50
55313;DHT22;46892;45.668;11.756;2023-12-29T03:37:54;3.50;86.30
55313;DHT22;46892;45.668;11.756;2023-12-29T03:40:20;3.40;86.20
55313;DHT22;46892;45.668;11.756;2023-12-29T03:42:46;3.30;86.60
55313;DHT22;46892;45.668;11.756;2023-12-29T03:45:12;3.30;87.10
55313;DHT22;46892;45.668;11.756;2023-12-29T03:47:37;3.30;87.20
55313;DHT22;46892;45.668;11.756;2023-12-29T03:50:03;3.40;87.00
55313;DHT22;46892;45.668;11.756;2023-12-29T03:52:29;3.40;86.50
55313;DHT22;46892;45.668;11.756;2023-12-29T03:54:55;3.50;86.80
55313;DHT22;46892;45.668;11.756;2023-12-29T03:57:21;3.60;86.60
55313;DHT22;46892;45.668;11.756;2023-12-29T03:59:46;3.60;87.30
55313;DHT22;46892;45.668;11.756;2023-12-29T04:02:12;3.70;86.30
55313;DHT22;46892;45.668;11.756;2023-12-29T04:04:38;3.70;86.40
55313;DHT22;46892;45.668;11.756;2023-12-29T04:07:04;3.80;86.90
55313;DHT22;46892;45.668;11.756;2023-12-29T04:09:30;3.80;85.70
55313;DHT22;46892;45.668;11.756;2023-12-29T04:11:56;3.70;85.00
55313;DHT22;46892;45.668;11.756;2023-12-29T04:14:22;3.50;84.90
55313;DHT22;46892;45.668;11.756;2023-12-29T04:16:48;3.30;84.50
55313;DHT22;46892;45.668;11.756;2023-12-29T04:19:13;3.20;85.60
55313;DHT22;46892;45.668;11.756;2023-12-29T04:21:39;3.10;86.00
55313;DHT22;46892;45.668;11.756;2023-12-29T04:24:05;3.10;86.20
55313;DHT22;46892;45.668;11.756;2023-12-29T04:26:36;3.10;86.40
55313;DHT22;46892;45.668;11.756;2023-12-29T04:29:02;3.20;86.30
55313;DHT22;46892;45.668;11.756;2023-12-29T04:31:28;3.20;86.60
55313;DHT22;46892;45.668;11.756;2023-12-29T04:33:54;3.20;86.30
55313;DHT22;46892;45.668;11.756;2023-12-29T04:36:20;3.20;86.10
55313;DHT22;46892;45.668;11.756;2023-12-29T04:38:45;3.10;86.40
55313;DHT22;46892;45.668;11.756;2023-12-29T04:41:14;3.10;86.10
55313;DHT22;46892;45.668;11.756;2023-12-29T04:43:40;3.10;87.30
55313;DHT22;46892;45.668;11.756;2023-12-29T04:46:06;3.10;87.00
55313;DHT22;46892;45.668;11.756;2023-12-29T04:48:31;3.10;87.10
55313;DHT22;46892;45.668;11.756;2023-12-29T04:50:57;3.00;86.90
55313;DHT22;46892;45.668;11.756;2023-12-29T04:53:23;2.90;87.00
55313;DHT22;46892;45.668;11.756;2023-12-29T04:55:49;3.00;87.30
55313;DHT22;46892;45.668;11.756;2023-12-29T04:58:14;2.90;86.60
55313;DHT22;46892;45.668;11.756;2023-12-29T05:00:40;2.80;87.00
55313;DHT22;46892;45.668;11.756;2023-12-29T05:03:06;2.80;87.30
55313;DHT22;46892;45.668;11.756;2023-12-29T05:05:31;2.80;87.70
55313;DHT22;46892;45.668;11.756;2023-12-29T05:07:57;2.90;87.80
55313;DHT22;46892;45.668;11.756;2023-12-29T05:10:23;3.10;88.70
55313;DHT22;46892;45.668;11.756;2023-12-29T05:12:49;3.10;87.70
55313;DHT22;46892;45.668;11.756;2023-12-29T05:15:14;3.00;86.70
55313;DHT22;46892;45.668;11.756;2023-12-29T05:17:40;2.90;86.50
55313;DHT22;46892;45.668;11.756;2023-12-29T05:20:07;3.00;88.10
55313;DHT22;46892;45.668;11.756;2023-12-29T05:22:33;3.20;87.20
55313;DHT22;46892;45.668;11.756;2023-12-29T05:24:59;3.10;86.50
55313;DHT22;46892;45.668;11.756;2023-12-29T05:27:25;3.00;86.30
55313;DHT22;46892;45.668;11.756;2023-12-29T05:29:51;3.00;86.90
55313;DHT22;46892;45.668;11.756;2023-12-29T05:32:17;3.10;87.00
55313;DHT22;46892;45.668;11.756;2023-12-29T05:34:43;3.00;87.40
55313;DHT22;46892;45.668;11.756;2023-12-29T05:37:08;2.90;87.10
55313;DHT22;46892;45.668;11.756;2023-12-29T05:39:34;2.90;87.60
55313;DHT22;46892;45.668;11.756;2023-12-29T05:42:00;2.90;87.20
55313;DHT22;46892;45.668;11.756;2023-12-29T05:44:26;2.90;87.70
55313;DHT22;46892;45.668;11.756;2023-12-29T05:46:51;2.90;87.50
55313;DHT22;46892;45.668;11.756;2023-12-29T05:49:17;3.00;87.90
55313;DHT22;46892;45.668;11.756;2023-12-29T05:51:44;3.00;87.50
55313;DHT22;46892;45.668;11.756;2023-12-29T05:54:10;3.00;87.50
55313;DHT22;46892;45.668;11.756;2023-12-29T05:56:35;3.00;87.50
55313;DHT22;46892;45.668;11.756;2023-12-29T05:59:01;3.00;87.90
55313;DHT22;46892;45.668;11.756;2023-12-29T06:01:27;3.00;87.90
55313;DHT22;46892;45.668;11.756;2023-12-29T06:03:52;3.00;86.90
55313;DHT22;46892;45.668;11.756;2023-12-29T06:06:18;2.60;85.80
55313;DHT22;46892;45.668;11.756;2023-12-29T06:08:44;2.50;86.80
55313;DHT22;46892;45.668;11.756;2023-12-29T06:11:15;2.60;86.60
55313;DHT22;46892;45.668;11.756;2023-12-29T06:13:41;2.30;86.80
55313;DHT22;46892;45.668;11.756;2023-12-29T06:16:07;2.30;86.50
55313;DHT22;46892;45.668;11.756;2023-12-29T06:18:36;2.20;86.50
55313;DHT22;46892;45.668;11.756;2023-12-29T06:21:06;2.20;87.30
55313;DHT22;46892;45.668;11.756;2023-12-29T06:23:32;2.30;87.50
55313;DHT22;46892;45.668;11.756;2023-12-29T06:25:58;2.30;88.30
55313;DHT22;46892;45.668;11.756;2023-12-29T06:28:23;2.30;88.30
55313;DHT22;46892;45.668;11.756;2023-12-29T06:30:49;2.20;87.20
55313;DHT22;46892;45.668;11.756;2023-12-29T06:33:15;2.10;87.40
55313;DHT22;46892;45.668;11.756;2023-12-29T06:35:40;2.20;87.90
55313;DHT22;46892;45.668;11.756;2023-12-29T06:38:06;2.20;87.60
55313;DHT22;46892;45.668;11.756;2023-12-29T06:40:32;2.10;87.40
55313;DHT22;46892;45.668;11.756;2023-12-29T06:42:58;2.10;87.90
55313;DHT22;46892;45.668;11.756;2023-12-29T06:45:23;2.10;88.20
55313;DHT22;46892;45.668;11.756;2023-12-29T06:47:49;2.10;88.50
55313;DHT22;46892;45.668;11.756;2023-12-29T06:50:15;2.00;88.90
55313;DHT22;46892;45.668;11.756;2023-12-29T06:52:41;2.10;88.60
55313;DHT22;46892;45.668;11.756;2023-12-29T06:55:07;2.10;88.70
55313;DHT22;46892;45.668;11.756;2023-12-29T06:57:33;2.10;88.50
55313;DHT22;46892;45.668;11.756;2023-12-29T06:59:59;2.00;88.10
55313;DHT22;46892;45.668;11.756;2023-12-29T07:02:25;2.00;88.50
55313;DHT22;46892;45.668;11.756;2023-12-29T07:04:50;2.20;89.10
55313;DHT22;46892;45.668;11.756;2023-12-29T07:07:16;2.30;89.40
55313;DHT22;46892;45.668;11.756;2023-12-29T07:09:42;2.30;88.40
55313;DHT22;46892;45.668;11.756;2023-12-29T07:12:08;2.30;88.30
55313;DHT22;46892;45.668;11.756;2023-12-29T07:14:33;2.30;88.30
55313;DHT22;46892;45.668;11.756;2023-12-29T07:17:01;2.30;88.10
55313;DHT22;46892;45.668;11.756;2023-12-29T07:19:27;2.40;87.90
55313;DHT22;46892;45.668;11.756;2023-12-29T07:21:59;2.30;87.80
55313;DHT22;46892;45.668;11.756;2023-12-29T07:24:25;2.30;87.90
55313;DHT22;46892;45.668;11.756;2023-12-29T07:26:51;2.30;88.00
55313;DHT22;46892;45.668;11.756;2023-12-29T07:29:16;2.30;88.30
55313;DHT22;46892;45.668;11.756;2023-12-29T07:31:42;2.30;88.50
55313;DHT22;46892;45.668;11.756;2023-12-29T07:34:08;2.40;88.60
55313;DHT22;46892;45.668;11.756;2023-12-29T07:36:38;2.40;88.70
55313;DHT22;46892;45.668;11.756;2023-12-29T07:39:04;2.40;88.60
55313;DHT22;46892;45.668;11.756;2023-12-29T07:41:30;2.40;88.40
55313;DHT22;46892;45.668;11.756;2023-12-29T07:43:55;2.40;88.70
55313;DHT22;46892;45.668;11.756;2023-12-29T07:46:27;2.30;88.50
55313;DHT22;46892;45.668;11.756;2023-12-29T07:48:53;2.40;88.60
55313;DHT22;46892;45.668;11.756;2023-12-29T07:51:18;2.50;88.90
55313;DHT22;46892;45.668;11.756;2023-12-29T07:53:44;2.80;89.60
55313;DHT22;46892;45.668;11.756;2023-12-29T07:56:10;2.90;88.20
55313;DHT22;46892;45.668;11.756;2023-12-29T07:58:36;3.00;87.40
55313;DHT22;46892;45.668;11.756;2023-12-29T08:01:02;3.00;87.30
55313;DHT22;46892;45.668;11.756;2023-12-29T08:03:28;3.00;87.20
55313;DHT22;46892;45.668;11.756;2023-12-29T08:05:53;2.90;87.40
55313;DHT22;46892;45.668;11.756;2023-12-29T08:08:19;2.90;87.10
55313;DHT22;46892;45.668;11.756;2023-12-29T08:10:45;2.80;87.00
55313;DHT22;46892;45.668;11.756;2023-12-29T08:13:10;2.80;87.70
55313;DHT22;46892;45.668;11.756;2023-12-29T08:15:36;2.80;88.30
55313;DHT22;46892;45.668;11.756;2023-12-29T08:18:03;2.90;88.70
55313;DHT22;46892;45.668;11.756;2023-12-29T08:20:29;3.00;88.80
55313;DHT22;46892;45.668;11.756;2023-12-29T08:22:55;3.10;88.90
55313;DHT22;46892;45.668;11.756;2023-12-29T08:25:22;3.20;88.40
55313;DHT22;46892;45.668;11.756;2023-12-29T08:27:48;3.20;87.50
55313;DHT22;46892;45.668;11.756;2023-12-29T08:30:14;3.00;87.00
55313;DHT22;46892;45.668;11.756;2023-12-29T08:32:41;2.90;88.00
55313;DHT22;46892;45.668;11.756;2023-12-29T08:35:07;2.80;88.60
55313;DHT22;46892;45.668;11.756;2023-12-29T08:37:32;2.80;89.30
55313;DHT22;46892;45.668;11.756;2023-12-29T08:39:59;2.80;89.50
55313;DHT22;46892;45.668;11.756;2023-12-29T08:42:25;2.80;89.80
55313;DHT22;46892;45.668;11.756;2023-12-29T08:44:52;2.80;90.00
55313;DHT22;46892;45.668;11.756;2023-12-29T08:47:18;2.80;90.20
55313;DHT22;46892;45.668;11.756;2023-12-29T08:49:43;3.00;90.60
55313;DHT22;46892;45.668;11.756;2023-12-29T08:52:09;3.20;91.20
55313;DHT22;46892;45.668;11.756;2023-12-29T08:54:35;3.30;91.00
55313;DHT22;46892;45.668;11.756;2023-12-29T08:57:04;3.50;90.70
55313;DHT22;46892;45.668;11.756;2023-12-29T08:59:32;3.60;90.60
55313;DHT22;46892;45.668;11.756;2023-12-29T09:01:58;3.70;90.60
55313;DHT22;46892;45.668;11.756;2023-12-29T09:04:24;3.70;90.10
55313;DHT22;46892;45.668;11.756;2023-12-29T09:06:49;3.80;90.40
55313;DHT22;46892;45.668;11.756;2023-12-29T09:09:15;3.90;89.40
55313;DHT22;46892;45.668;11.756;2023-12-29T09:11:44;3.80;89.40
55313;DHT22;46892;45.668;11.756;2023-12-29T09:14:10;3.80;89.60
55313;DHT22;46892;45.668;11.756;2023-12-29T09:16:36;3.90;89.70
55313;DHT22;46892;45.668;11.756;2023-12-29T09:19:02;3.90;89.90
55313;DHT22;46892;45.668;11.756;2023-12-29T09:21:28;4.00;89.90
55313;DHT22;46892;45.668;11.756;2023-12-29T09:23:54;4.10;90.50
55313;DHT22;46892;45.668;11.756;2023-12-29T09:26:20;4.30;90.20
55313;DHT22;46892;45.668;11.756;2023-12-29T09:28:46;4.30;89.90
55313;DHT22;46892;45.668;11.756;2023-12-29T09:31:12;4.40;90.40
55313;DHT22;46892;45.668;11.756;2023-12-29T09:33:38;4.60;89.90
55313;DHT22;46892;45.668;11.756;2023-12-29T09:36:04;4.60;89.80
55313;DHT22;46892;45.668;11.756;2023-12-29T09:38:30;4.60;90.20
55313;DHT22;46892;45.668;11.756;2023-12-29T09:41:02;4.70;90.20
55313;DHT22;46892;45.668;11.756;2023-12-29T09:43:31;4.80;90.20
55313;DHT22;46892;45.668;11.756;2023-12-29T09:45:58;4.80;90.10
55313;DHT22;46892;45.668;11.756;2023-12-29T09:48:26;4.80;90.20
55313;DHT22;46892;45.668;11.756;2023-12-29T09:50:53;4.90;90.20
55313;DHT22;46892;45.668;11.756;2023-12-29T09:53:20;4.90;90.30
55313;DHT22;46892;45.668;11.756;2023-12-29T09:55:48;5.00;90.30
55313;DHT22;46892;45.668;11.756;2023-12-29T09:58:15;5.10;90.30
55313;DHT22;46892;45.668;11.756;2023-12-29T10:00:44;5.20;91.10
55313;DHT22;46892;45.668;11.756;2023-12-29T10:03:12;5.30;91.00
55313;DHT22;46892;45.668;11.756;2023-12-29T10:05:37;5.40;90.80
55313;DHT22;46892;45.668;11.756;2023-12-29T10:08:05;5.50;90.70
55313;DHT22;46892;45.668;11.756;2023-12-29T10:10:33;5.60;91.40
55313;DHT22;46892;45.668;11.756;2023-12-29T10:13:01;5.80;91.50
55313;DHT22;46892;45.668;11.756;2023-12-29T10:15:46;5.80;91.20
55313;DHT22;46892;45.668;11.756;2023-12-29T10:18:27;5.90;91.20
55313;DHT22;46892;45.668;11.756;2023-12-29T10:21:01;6.00;90.90
55313;DHT22;46892;45.668;11.756;2023-12-29T10:23:40;6.00;90.80
55313;DHT22;46892;45.668;11.756;2023-12-29T10:26:10;6.10;90.90
55313;DHT22;46892;45.668;11.756;2023-12-29T10:28:36;6.20;90.70
55313;DHT22;46892;45.668;11.756;2023-12-29T10:31:04;6.20;90.50
55313;DHT22;46892;45.668;11.756;2023-12-29T10:33:30;6.30;90.50
55313;DHT22;46892;45.668;11.756;2023-12-29T10:36:03;6.30;90.50
55313;DHT22;46892;45.668;11.756;2023-12-29T10:38:31;6.40;90.40
55313;DHT22;46892;45.668;11.756;2023-12-29T10:41:30;6.40;90.20
55313;DHT22;46892;45.668;11.756;2023-12-29T10:44:06;6.50;90.00
55313;DHT22;46892;45.668;11.756;2023-12-29T10:46:32;6.50;90.00
55313;DHT22;46892;45.668;11.756;2023-12-29T10:49:12;6.50;90.10
55313;DHT22;46892;45.668;11.756;2023-12-29T10:51:39;6.60;90.10
55313;DHT22;46892;45.668;11.756;2023-12-29T10:54:06;6.60;90.00
55313;DHT22;46892;45.668;11.756;2023-12-29T10:56:32;6.60;90.10
55313;DHT22;46892;45.668;11.756;2023-12-29T10:59:02;6.70;90.10
55313;DHT22;46892;45.668;11.756;2023-12-29T11:01:33;6.70;89.90
55313;DHT22;46892;45.668;11.756;2023-12-29T11:04:01;6.80;89.80
55313;DHT22;46892;45.668;11.756;2023-12-29T11:06:28;6.80;89.80
55313;DHT22;46892;45.668;11.756;2023-12-29T11:08:55;6.90;89.50
55313;DHT22;46892;45.668;11.756;2023-12-29T11:11:21;6.90;89.50
55313;DHT22;46892;45.668;11.756;2023-12-29T11:13:48;6.80;89.60
55313;DHT22;46892;45.668;11.756;2023-12-29T11:16:14;6.90;89.60
55313;DHT22;46892;45.668;11.756;2023-12-29T11:18:43;6.90;89.50
55313;DHT22;46892;45.668;11.756;2023-12-29T11:21:12;6.90;89.60
55313;DHT22;46892;45.668;11.756;2023-12-29T11:23:38;6.90;89.50
55313;DHT22;46892;45.668;11.756;2023-12-29T11:26:04;6.90;89.50
55313;DHT22;46892;45.668;11.756;2023-12-29T11:28:30;7.00;89.40
55313;DHT22;46892;45.668;11.756;2023-12-29T11:30:56;7.00;89.50
55313;DHT22;46892;45.668;11.756;2023-12-29T11:33:26;7.00;89.40
55313;DHT22;46892;45.668;11.756;2023-12-29T11:36:25;7.00;89.10
55313;DHT22;46892;45.668;11.756;2023-12-29T11:42:10;7.00;89.10
55313;DHT22;46892;45.668;11.756;2023-12-29T11:44:32;7.00;89.00
55313;DHT22;46892;45.668;11.756;2023-12-29T11:46:59;7.00;89.10
55313;DHT22;46892;45.668;11.756;2023-12-29T11:49:25;7.00;89.20
55313;DHT22;46892;45.668;11.756;2023-12-29T11:51:51;7.10;89.30
55313;DHT22;46892;45.668;11.756;2023-12-29T11:54:25;7.20;89.20
55313;DHT22;46892;45.668;11.756;2023-12-29T11:56:53;7.20;89.20
55313;DHT22;46892;45.668;11.756;2023-12-29T11:59:20;7.20;89.30
55313;DHT22;46892;45.668;11.756;2023-12-29T12:01:50;7.20;89.10
55313;DHT22;46892;45.668;11.756;2023-12-29T12:04:42;7.30;88.60
55313;DHT22;46892;45.668;11.756;2023-12-29T12:12:47;7.30;88.30
55313;DHT22;46892;45.668;11.756;2023-12-29T12:17:54;7.40;87.10
55313;DHT22;46892;45.668;11.756;2023-12-29T12:20:20;7.40;86.70
55313;DHT22;46892;45.668;11.756;2023-12-29T12:23:02;7.50;86.30
55313;DHT22;46892;45.668;11.756;2023-12-29T12:25:31;7.50;86.10
55313;DHT22;46892;45.668;11.756;2023-12-29T12:28:01;7.50;86.20
55313;DHT22;46892;45.668;11.756;2023-12-29T12:30:29;7.50;86.20
55313;DHT22;46892;45.668;11.756;2023-12-29T12:32:59;7.60;85.90
55313;DHT22;46892;45.668;11.756;2023-12-29T12:35:25;7.60;85.80
55313;DHT22;46892;45.668;11.756;2023-12-29T12:38:16;7.60;85.70
55313;DHT22;46892;45.668;11.756;2023-12-29T12:40:48;7.60;85.60
55313;DHT22;46892;45.668;11.756;2023-12-29T12:43:14;7.70;85.90
55313;DHT22;46892;45.668;11.756;2023-12-29T12:45:42;7.70;86.10
55313;DHT22;46892;45.668;11.756;2023-12-29T12:48:19;7.80;86.30
55313;DHT22;46892;45.668;11.756;2023-12-29T12:50:46;7.70;86.20
55313;DHT22;46892;45.668;11.756;2023-12-29T12:53:13;7.70;85.60
55313;DHT22;46892;45.668;11.756;2023-12-29T12:55:50;7.70;85.90
55313;DHT22;46892;45.668;11.756;2023-12-29T12:58:19;7.70;85.70
55313;DHT22;46892;45.668;11.756;2023-12-29T13:00:48;7.70;85.40
55313;DHT22;46892;45.668;11.756;2023-12-29T13:03:15;7.80;85.30
55313;DHT22;46892;45.668;11.756;2023-12-29T13:05:42;7.80;85.30
55313;DHT22;46892;45.668;11.756;2023-12-29T13:08:08;7.80;85.00
55313;DHT22;46892;45.668;11.756;2023-12-29T13:10:40;7.80;85.20
55313;DHT22;46892;45.668;11.756;2023-12-29T13:13:06;7.80;84.80
55313;DHT22;46892;45.668;11.756;2023-12-29T13:15:32;7.80;84.70
55313;DHT22;46892;45.668;11.756;2023-12-29T13:17:58;7.80;84.80
55313;DHT22;46892;45.668;11.756;2023-12-29T13:20:24;7.80;85.00
55313;DHT22;46892;45.668;11.756;2023-12-29T13:22:50;7.80;84.50
55313;DHT22;46892;45.668;11.756;2023-12-29T13:25:24;7.80;84.10
55313;DHT22;46892;45.668;11.756;2023-12-29T13:27:52;7.80;84.30
55313;DHT22;46892;45.668;11.756;2023-12-29T13:30:19;7.90;84.50
55313;DHT22;46892;45.668;11.756;2023-12-29T13:32:47;7.90;84.40
55313;DHT22;46892;45.668;11.756;2023-12-29T13:38:05;8.00;84.50
55313;DHT22;46892;45.668;11.756;2023-12-29T13:43:33;8.00;84.60
55313;DHT22;46892;45.668;11.756;2023-12-29T13:46:01;8.10;84.70
55313;DHT22;46892;45.668;11.756;2023-12-29T13:48:28;8.10;84.80
55313;DHT22;46892;45.668;11.756;2023-12-29T13:50:55;8.10;84.70
55313;DHT22;46892;45.668;11.756;2023-12-29T13:53:21;8.20;84.50
55313;DHT22;46892;45.668;11.756;2023-12-29T13:55:50;8.20;84.40
55313;DHT22;46892;45.668;11.756;2023-12-29T13:58:16;8.20;83.90
55313;DHT22;46892;45.668;11.756;2023-12-29T14:00:46;8.20;82.60
55313;DHT22;46892;45.668;11.756;2023-12-29T14:03:26;8.20;82.00
55313;DHT22;46892;45.668;11.756;2023-12-29T14:05:56;8.20;81.60
55313;DHT22;46892;45.668;11.756;2023-12-29T14:08:25;8.20;81.80
55313;DHT22;46892;45.668;11.756;2023-12-29T14:10:52;8.30;81.10
55313;DHT22;46892;45.668;11.756;2023-12-29T14:13:19;8.20;81.80
55313;DHT22;46892;45.668;11.756;2023-12-29T14:15:46;8.30;82.10
55313;DHT22;46892;45.668;11.756;2023-12-29T14:20:48;8.30;81.90
55313;DHT22;46892;45.668;11.756;2023-12-29T14:23:18;8.30;81.70
55313;DHT22;46892;45.668;11.756;2023-12-29T14:25:44;8.30;81.50
55313;DHT22;46892;45.668;11.756;2023-12-29T14:28:18;8.20;81.30
55313;DHT22;46892;45.668;11.756;2023-12-29T14:30:44;8.20;81.80
55313;DHT22;46892;45.668;11.756;2023-12-29T14:33:10;8.20;82.60
55313;DHT22;46892;45.668;11.756;2023-12-29T14:35:36;8.20;82.90
55313;DHT22;46892;45.668;11.756;2023-12-29T14:38:03;8.20;83.00
55313;DHT22;46892;45.668;11.756;2023-12-29T14:40:29;8.20;83.20
55313;DHT22;46892;45.668;11.756;2023-12-29T14:42:55;8.20;83.40
55313;DHT22;46892;45.668;11.756;2023-12-29T14:45:21;8.10;83.30
55313;DHT22;46892;45.668;11.756;2023-12-29T14:47:47;8.10;83.20
55313;DHT22;46892;45.668;11.756;2023-12-29T14:50:17;8.00;83.10
55313;DHT22;46892;45.668;11.756;2023-12-29T14:52:43;8.00;83.00
55313;DHT22;46892;45.668;11.756;2023-12-29T14:55:08;8.00;83.30
55313;DHT22;46892;45.668;11.756;2023-12-29T14:57:34;8.00;83.20
55313;DHT22;46892;45.668;11.756;2023-12-29T15:00:00;8.00;83.40
55313;DHT22;46892;45.668;11.756;2023-12-29T15:02:26;8.00;83.30
55313;DHT22;46892;45.668;11.756;2023-12-29T15:04:52;8.00;83.30
55313;DHT22;46892;45.668;11.756;2023-12-29T15:07:19;8.00;83.30
55313;DHT22;46892;45.668;11.756;2023-12-29T15:09:47;8.00;83.30
55313;DHT22;46892;45.668;11.756;2023-12-29T15:12:16;8.00;83.30
55313;DHT22;46892;45.668;11.756;2023-12-29T15:14:46;7.90;83.50
55313;DHT22;46892;45.668;11.756;2023-12-29T15:17:13;7.80;83.60
55313;DHT22;46892;45.668;11.756;2023-12-29T15:19:40;7.80;83.50
55313;DHT22;46892;45.668;11.756;2023-12-29T15:22:07;7.80;83.50
55313;DHT22;46892;45.668;11.756;2023-12-29T15:24:33;7.80;83.60
55313;DHT22;46892;45.668;11.756;2023-12-29T15:27:01;7.70;84.20
55313;DHT22;46892;45.668;11.756;2023-12-29T15:29:29;7.70;84.30
55313;DHT22;46892;45.668;11.756;2023-12-29T15:31:58;7.70;84.40
55313;DHT22;46892;45.668;11.756;2023-12-29T15:34:24;7.60;84.60
55313;DHT22;46892;45.668;11.756;2023-12-29T15:36:50;7.60;84.80
55313;DHT22;46892;45.668;11.756;2023-12-29T15:39:16;7.60;85.50
55313;DHT22;46892;45.668;11.756;2023-12-29T15:41:41;7.60;85.50
55313;DHT22;46892;45.668;11.756;2023-12-29T15:44:07;7.50;85.40
55313;DHT22;46892;45.668;11.756;2023-12-29T15:46:33;7.50;85.60
55313;DHT22;46892;45.668;11.756;2023-12-29T15:48:59;7.50;85.70
55313;DHT22;46892;45.668;11.756;2023-12-29T15:51:28;7.50;85.80
55313;DHT22;46892;45.668;11.756;2023-12-29T15:53:55;7.40;85.80